createdAt,value
2019-01-27T00:00:51.961Z,0
2019-01-27T00:01:51.975Z,0
2019-01-27T00:02:51.990Z,0
2019-01-27T00:03:52.014Z,0
2019-01-27T00:04:52.036Z,0
2019-01-27T00:05:52.035Z,0
2019-01-27T00:07:06.716Z,0
2019-01-27T00:07:52.123Z,0
2019-01-27T00:08:52.080Z,0
2019-01-27T00:09:52.129Z,0
2019-01-27T00:10:52.114Z,0
2019-01-27T00:11:52.123Z,0
2019-01-27T00:12:52.132Z,0
2019-01-27T00:14:52.159Z,0
2019-01-27T00:15:52.171Z,0
2019-01-27T00:16:52.203Z,0
2019-01-27T00:17:52.198Z,0
2019-01-27T00:19:06.882Z,0
2019-01-27T00:20:06.894Z,0
2019-01-27T00:20:52.248Z,0
2019-01-27T00:23:06.933Z,0
2019-01-27T00:24:52.305Z,0
2019-01-27T00:26:06.979Z,0
2019-01-27T00:26:52.329Z,0
2019-01-27T00:27:52.340Z,0
2019-01-27T00:28:52.363Z,0
2019-01-27T00:29:52.369Z,0
2019-01-27T00:30:52.386Z,0
2019-01-27T00:31:52.400Z,0
2019-01-27T00:32:52.413Z,0
2019-01-27T00:33:52.428Z,0
2019-01-27T00:35:07.104Z,0
2019-01-27T00:35:52.457Z,0
2019-01-27T00:36:52.232Z,0
2019-01-27T00:37:52.533Z,0
2019-01-27T00:39:52.517Z,0
2019-01-27T00:40:52.522Z,0
2019-01-27T00:42:07.202Z,0
2019-01-27T00:43:52.620Z,0
2019-01-27T00:44:52.587Z,0
2019-01-27T00:45:52.655Z,0
2019-01-27T00:46:52.608Z,0
2019-01-27T00:47:52.673Z,0
2019-01-27T00:48:52.639Z,0
2019-01-27T00:49:52.651Z,0
2019-01-27T00:50:52.663Z,0
2019-01-27T00:51:52.684Z,0
2019-01-27T00:53:07.359Z,0
2019-01-27T00:53:52.714Z,0
2019-01-27T00:54:52.723Z,0
2019-01-27T00:55:52.738Z,0
2019-01-27T00:56:52.752Z,0
2019-01-27T00:58:07.426Z,0
2019-01-27T00:58:52.775Z,0
2019-01-27T00:59:52.789Z,0
2019-01-27T01:00:52.844Z,0
2019-01-27T01:01:52.821Z,0
2019-01-27T01:02:52.833Z,0
2019-01-27T01:03:52.850Z,0
2019-01-27T01:04:52.861Z,0
2019-01-27T01:05:52.630Z,0
2019-01-27T01:06:52.891Z,0
2019-01-27T01:08:07.567Z,0
2019-01-27T01:09:07.580Z,0
2019-01-27T01:09:52.933Z,0
2019-01-27T01:11:07.724Z,0
2019-01-27T01:12:52.979Z,0
2019-01-27T01:14:53.005Z,0
2019-01-27T01:16:53.033Z,0
2019-01-27T01:17:53.049Z,0
2019-01-27T01:18:53.059Z,0
2019-01-27T01:19:53.081Z,0
2019-01-27T01:20:53.095Z,0
2019-01-27T01:21:53.102Z,0
2019-01-27T01:22:53.127Z,0
2019-01-27T01:23:53.129Z,0
2019-01-27T01:24:53.149Z,0
2019-01-27T01:26:07.820Z,0
2019-01-27T01:26:53.176Z,0
2019-01-27T01:27:53.190Z,0
2019-01-27T01:29:07.866Z,0
2019-01-27T01:29:53.219Z,0
2019-01-27T01:30:53.234Z,0
2019-01-27T01:31:53.252Z,0
2019-01-27T01:32:53.316Z,0
2019-01-27T01:33:53.275Z,0
2019-01-27T01:34:53.289Z,0
2019-01-27T01:35:53.303Z,0
2019-01-27T01:37:07.980Z,0
2019-01-27T01:38:07.993Z,0
2019-01-27T01:38:53.353Z,0
2019-01-27T01:39:53.455Z,0
2019-01-27T01:40:53.373Z,0
2019-01-27T01:41:53.383Z,0
2019-01-27T01:42:53.399Z,0
2019-01-27T01:43:53.413Z,0
2019-01-27T01:44:53.425Z,0
2019-01-27T01:45:53.439Z,0
2019-01-27T01:46:53.457Z,0
2019-01-27T01:47:53.471Z,0
2019-01-27T01:48:53.537Z,0
2019-01-27T01:49:53.504Z,0
2019-01-27T01:51:08.214Z,0
2019-01-27T01:51:53.532Z,0
2019-01-27T01:52:53.546Z,0
2019-01-27T01:53:53.552Z,0
2019-01-27T01:54:53.569Z,0
2019-01-27T01:55:53.583Z,0
2019-01-27T01:57:08.266Z,0
2019-01-27T01:58:08.273Z,0
2019-01-27T01:58:53.425Z,0
2019-01-27T01:59:53.642Z,0
2019-01-27T02:01:08.317Z,0
2019-01-27T02:01:53.672Z,0
2019-01-27T02:02:53.682Z,0
2019-01-27T02:03:53.695Z,0
2019-01-27T02:04:53.708Z,0
2019-01-27T02:05:53.739Z,0
2019-01-27T02:06:53.737Z,0
2019-01-27T02:07:53.751Z,0
2019-01-27T02:08:53.762Z,0
2019-01-27T02:09:53.798Z,0
2019-01-27T02:10:53.795Z,0
2019-01-27T02:12:08.471Z,0
2019-01-27T02:12:53.825Z,0
2019-01-27T02:13:53.832Z,0
2019-01-27T02:14:53.851Z,0
2019-01-27T02:15:53.864Z,0
2019-01-27T02:17:08.546Z,0
2019-01-27T02:17:53.890Z,0
2019-01-27T02:18:53.908Z,0
2019-01-27T02:20:53.932Z,0
2019-01-27T02:21:53.946Z,0
2019-01-27T02:22:53.963Z,0
2019-01-27T02:23:53.988Z,0
2019-01-27T02:24:54.046Z,0
2019-01-27T02:25:54.002Z,0
2019-01-27T02:26:54.020Z,0
2019-01-27T02:27:54.031Z,0
2019-01-27T02:29:54.058Z,0
2019-01-27T02:31:08.750Z,0
2019-01-27T02:31:54.093Z,0
2019-01-27T02:33:08.781Z,0
2019-01-27T02:33:54.122Z,0
2019-01-27T02:34:54.185Z,0
2019-01-27T02:35:54.144Z,0
2019-01-27T02:36:54.165Z,0
2019-01-27T02:37:54.183Z,0
2019-01-27T02:38:54.186Z,0
2019-01-27T02:40:08.923Z,0
2019-01-27T02:40:54.217Z,0
2019-01-27T02:41:54.283Z,0
2019-01-27T02:43:08.910Z,0
2019-01-27T02:43:54.265Z,0
2019-01-27T02:45:54.288Z,0
2019-01-27T02:46:54.303Z,0
2019-01-27T02:47:54.370Z,0
2019-01-27T02:49:09.017Z,0
2019-01-27T02:49:54.347Z,0
2019-01-27T02:50:54.359Z,0
2019-01-27T02:51:54.428Z,0
2019-01-27T02:52:54.388Z,0
2019-01-27T02:53:54.266Z,0
2019-01-27T02:54:54.409Z,0
2019-01-27T02:55:54.498Z,0
2019-01-27T02:56:54.445Z,0
2019-01-27T02:57:54.454Z,0
2019-01-27T02:58:54.467Z,0
2019-01-27T02:59:55.256Z,0
2019-01-27T03:01:54.510Z,0
2019-01-27T03:02:54.534Z,0
2019-01-27T03:04:09.203Z,0
2019-01-27T03:05:54.579Z,0
2019-01-27T03:06:54.600Z,0
2019-01-27T03:07:54.596Z,0
2019-01-27T03:09:09.277Z,0
2019-01-27T03:09:54.625Z,0
2019-01-27T03:10:54.639Z,0
2019-01-27T03:12:54.661Z,0
2019-01-27T03:13:54.721Z,0
2019-01-27T03:14:54.734Z,0
2019-01-27T03:15:54.757Z,0
2019-01-27T03:16:54.732Z,0
2019-01-27T03:18:09.395Z,0
2019-01-27T03:18:54.755Z,0
2019-01-27T03:19:54.763Z,0
2019-01-27T03:20:54.790Z,0
2019-01-27T03:21:54.798Z,0
2019-01-27T03:22:54.804Z,0
2019-01-27T03:23:54.824Z,0
2019-01-27T03:24:54.874Z,0
2019-01-27T03:25:54.847Z,0
2019-01-27T03:27:09.527Z,0
2019-01-27T03:27:54.891Z,0
2019-01-27T03:28:54.895Z,0
2019-01-27T03:29:54.902Z,0
2019-01-27T03:30:54.960Z,0
2019-01-27T03:31:55.246Z,0
2019-01-27T03:32:54.738Z,0
2019-01-27T03:33:54.966Z,0
2019-01-27T03:34:54.971Z,0
2019-01-27T03:36:09.654Z,0
2019-01-27T03:36:55.002Z,0
2019-01-27T03:37:55.018Z,0
2019-01-27T03:38:55.095Z,0
2019-01-27T03:40:55.058Z,0
2019-01-27T03:43:09.752Z,0
2019-01-27T03:43:55.098Z,0
2019-01-27T03:44:55.187Z,0
2019-01-27T03:45:55.185Z,0
2019-01-27T03:46:55.167Z,0
2019-01-27T03:47:54.911Z,0
2019-01-27T03:48:55.165Z,0
2019-01-27T03:49:55.184Z,0
2019-01-27T03:50:55.281Z,0
2019-01-27T03:52:09.882Z,0
2019-01-27T03:52:55.276Z,0
2019-01-27T03:53:55.238Z,0
2019-01-27T03:54:55.253Z,0
2019-01-27T03:55:55.271Z,0
2019-01-27T03:56:55.281Z,0
2019-01-27T03:58:09.961Z,0
2019-01-27T03:58:55.306Z,0
2019-01-27T03:59:55.328Z,0
2019-01-27T04:00:55.337Z,0
2019-01-27T04:01:55.375Z,0
2019-01-27T04:02:55.376Z,0
2019-01-27T04:03:55.430Z,0
2019-01-27T04:04:55.403Z,0
2019-01-27T04:05:55.406Z,0
2019-01-27T04:06:55.423Z,0
2019-01-27T04:08:10.097Z,0
2019-01-27T04:08:55.454Z,0
2019-01-27T04:09:55.512Z,0
2019-01-27T04:10:55.480Z,0
2019-01-27T04:11:55.515Z,0
2019-01-27T04:12:55.506Z,0
2019-01-27T04:13:55.520Z,0
2019-01-27T04:14:55.532Z,0
2019-01-27T04:15:55.570Z,0
2019-01-27T04:16:55.561Z,0
2019-01-27T04:17:55.572Z,0
2019-01-27T04:19:10.253Z,0
2019-01-27T04:19:55.615Z,0
2019-01-27T04:21:10.282Z,0
2019-01-27T04:21:55.419Z,0
2019-01-27T04:24:10.320Z,0
2019-01-27T04:24:55.681Z,0
2019-01-27T04:25:55.686Z,0
2019-01-27T04:26:55.697Z,0
2019-01-27T04:27:55.712Z,0
2019-01-27T04:28:55.596Z,0
2019-01-27T04:29:55.744Z,0
2019-01-27T04:30:55.754Z,0
2019-01-27T04:31:55.773Z,0
2019-01-27T04:32:55.785Z,0
2019-01-27T04:33:55.798Z,0
2019-01-27T04:35:10.472Z,0
2019-01-27T04:36:10.259Z,0
2019-01-27T04:37:55.865Z,0
2019-01-27T04:39:10.533Z,0
2019-01-27T04:40:10.568Z,0
2019-01-27T04:40:55.893Z,0
2019-01-27T04:41:55.906Z,0
2019-01-27T04:42:55.934Z,0
2019-01-27T04:43:56.502Z,0
2019-01-27T04:44:56.004Z,0
2019-01-27T04:45:55.988Z,0
2019-01-27T04:47:10.640Z,0
2019-01-27T04:48:10.652Z,0
2019-01-27T04:48:56.003Z,0
2019-01-27T04:49:56.023Z,0
2019-01-27T04:50:56.047Z,0
2019-01-27T04:51:56.060Z,0
2019-01-27T04:53:10.724Z,0
2019-01-27T04:53:56.092Z,0
2019-01-27T04:54:56.097Z,0
2019-01-27T04:55:56.121Z,0
2019-01-27T04:56:56.141Z,0
2019-01-27T04:57:56.137Z,0
2019-01-27T04:58:56.197Z,0
2019-01-27T04:59:56.159Z,0
2019-01-27T05:01:56.195Z,0
2019-01-27T05:02:56.198Z,0
2019-01-27T05:04:56.222Z,0
2019-01-27T05:06:56.310Z,0
2019-01-27T05:07:56.292Z,0
2019-01-27T05:09:56.306Z,0
2019-01-27T05:11:10.970Z,0
2019-01-27T05:11:56.333Z,0
2019-01-27T05:12:56.514Z,0
2019-01-27T05:13:56.365Z,0
2019-01-27T05:14:56.367Z,0
2019-01-27T05:15:56.376Z,0
2019-01-27T05:16:56.398Z,0
2019-01-27T05:17:56.426Z,0
2019-01-27T05:18:56.422Z,0
2019-01-27T05:19:56.441Z,0
2019-01-27T05:20:56.444Z,0
2019-01-27T05:22:11.121Z,0
2019-01-27T05:23:11.140Z,0
2019-01-27T05:24:11.155Z,0
2019-01-27T05:24:56.503Z,0
2019-01-27T05:25:56.524Z,0
2019-01-27T05:27:11.190Z,0
2019-01-27T05:27:56.556Z,0
2019-01-27T05:28:56.712Z,0
2019-01-27T05:29:56.578Z,0
2019-01-27T05:30:56.584Z,0
2019-01-27T05:31:56.697Z,0
2019-01-27T05:32:56.630Z,0
2019-01-27T05:33:56.628Z,0
2019-01-27T05:34:56.644Z,0
2019-01-27T05:36:11.316Z,0
2019-01-27T05:37:11.380Z,0
2019-01-27T05:38:11.343Z,0
2019-01-27T05:38:56.697Z,0
2019-01-27T05:39:56.714Z,0
2019-01-27T05:40:56.770Z,0
2019-01-27T05:41:56.738Z,0
2019-01-27T05:43:11.417Z,0
2019-01-27T05:43:56.518Z,0
2019-01-27T05:44:56.781Z,0
2019-01-27T05:45:56.551Z,0
2019-01-27T05:46:56.810Z,0
2019-01-27T05:47:56.821Z,0
2019-01-27T05:48:56.838Z,0
2019-01-27T05:49:56.920Z,0
2019-01-27T05:51:11.527Z,0
2019-01-27T05:51:56.875Z,0
2019-01-27T05:52:56.894Z,0
2019-01-27T05:53:56.905Z,0
2019-01-27T05:54:56.930Z,0
2019-01-27T05:56:11.595Z,0
2019-01-27T05:57:03.783Z,0
2019-01-27T05:57:57.002Z,0
2019-01-27T05:59:11.663Z,0
2019-01-27T05:59:56.985Z,0
2019-01-27T06:01:57.016Z,0
2019-01-27T06:02:57.029Z,0
2019-01-27T06:03:57.041Z,0
2019-01-27T06:04:57.162Z,0
2019-01-27T06:05:57.118Z,0
2019-01-27T06:06:57.090Z,0
2019-01-27T06:07:57.104Z,0
2019-01-27T06:08:57.131Z,0
2019-01-27T06:09:57.183Z,0
2019-01-27T06:11:11.802Z,0
2019-01-27T06:12:57.176Z,0
2019-01-27T06:14:11.847Z,0
2019-01-27T06:14:57.202Z,0
2019-01-27T06:15:57.265Z,0
2019-01-27T06:17:11.942Z,0
2019-01-27T06:17:57.320Z,0
2019-01-27T06:18:57.262Z,0
2019-01-27T06:19:57.274Z,0
2019-01-27T06:20:57.292Z,0
2019-01-27T06:21:57.296Z,0
2019-01-27T06:23:11.970Z,0
2019-01-27T06:23:57.379Z,0
2019-01-27T06:24:57.096Z,0
2019-01-27T06:25:57.384Z,0
2019-01-27T06:27:57.383Z,0
2019-01-27T06:30:57.413Z,4
2019-01-27T06:31:57.433Z,0
2019-01-27T06:32:57.498Z,4
2019-01-27T06:33:57.461Z,4
2019-01-27T06:34:57.486Z,4
2019-01-27T06:35:57.488Z,8
2019-01-27T06:36:57.504Z,8
2019-01-27T06:37:57.514Z,8
2019-01-27T06:38:57.525Z,12
2019-01-27T06:39:57.541Z,12
2019-01-27T06:40:57.560Z,12
2019-01-27T06:41:57.571Z,16
2019-01-27T06:43:12.246Z,16
2019-01-27T06:43:57.648Z,16
2019-01-27T06:44:57.616Z,20
2019-01-27T06:46:12.289Z,24
2019-01-27T06:47:12.311Z,24
2019-01-27T06:47:57.754Z,28
2019-01-27T06:49:57.682Z,32
2019-01-27T06:50:57.694Z,32
2019-01-27T06:51:57.715Z,36
2019-01-27T06:52:57.728Z,40
2019-01-27T06:53:57.742Z,44
2019-01-27T06:54:57.752Z,48
2019-01-27T06:55:57.762Z,48
2019-01-27T06:56:57.886Z,52
2019-01-27T06:57:57.799Z,52
2019-01-27T06:58:57.807Z,56
2019-01-27T07:00:12.486Z,60
2019-01-27T07:00:57.836Z,60
2019-01-27T07:02:12.511Z,72
2019-01-27T07:02:57.913Z,76
2019-01-27T07:03:58.108Z,84
2019-01-27T07:04:57.890Z,96
2019-01-27T07:05:57.958Z,108
2019-01-27T07:06:57.915Z,124
2019-01-27T07:07:57.936Z,132
2019-01-27T07:08:57.950Z,144
2019-01-27T07:09:58.063Z,152
2019-01-27T07:10:57.993Z,172
2019-01-27T07:11:57.985Z,192
2019-01-27T07:12:58.005Z,212
2019-01-27T07:13:58.024Z,216
2019-01-27T07:14:58.030Z,224
2019-01-27T07:16:58.054Z,248
2019-01-27T07:18:12.737Z,252
2019-01-27T07:18:58.091Z,256
2019-01-27T07:19:58.121Z,272
2019-01-27T07:20:58.114Z,288
2019-01-27T07:21:58.126Z,312
2019-01-27T07:22:58.139Z,340
2019-01-27T07:23:58.152Z,376
2019-01-27T07:24:58.165Z,412
2019-01-27T07:25:58.181Z,440
2019-01-27T07:26:58.195Z,452
2019-01-27T07:27:58.209Z,432
2019-01-27T07:28:58.222Z,412
2019-01-27T07:29:58.249Z,420
2019-01-27T07:31:58.269Z,428
2019-01-27T07:32:58.285Z,388
2019-01-27T07:34:12.964Z,388
2019-01-27T07:34:58.311Z,400
2019-01-27T07:35:58.322Z,408
2019-01-27T07:37:58.350Z,452
2019-01-27T07:38:58.367Z,436
2019-01-27T07:39:58.622Z,428
2019-01-27T07:40:58.394Z,468
2019-01-27T07:41:58.406Z,484
2019-01-27T07:42:58.423Z,484
2019-01-27T07:43:58.433Z,528
2019-01-27T07:44:58.449Z,540
2019-01-27T07:46:13.124Z,544
2019-01-27T07:47:58.498Z,604
2019-01-27T07:49:13.174Z,600
2019-01-27T07:49:58.525Z,604
2019-01-27T07:51:58.554Z,652
2019-01-27T07:52:58.561Z,664
2019-01-27T07:53:58.577Z,672
2019-01-27T07:54:58.605Z,680
2019-01-27T07:55:58.605Z,724
2019-01-27T07:56:58.619Z,812
2019-01-27T07:57:58.627Z,916
2019-01-27T07:58:58.642Z,1040
2019-01-27T07:59:58.666Z,1228
2019-01-27T08:00:58.670Z,1460
2019-01-27T08:01:58.683Z,1624
2019-01-27T08:03:14.333Z,1672
2019-01-27T08:03:58.716Z,1584
2019-01-27T08:04:58.731Z,1308
2019-01-27T08:05:58.748Z,1104
2019-01-27T08:06:58.755Z,1048
2019-01-27T08:07:58.768Z,968
2019-01-27T08:08:58.791Z,868
2019-01-27T08:09:58.899Z,776
2019-01-27T08:10:58.811Z,736
2019-01-27T08:11:58.842Z,744
2019-01-27T08:12:58.838Z,672
2019-01-27T08:14:13.516Z,600
2019-01-27T08:15:58.881Z,420
2019-01-27T08:16:58.897Z,376
2019-01-27T08:18:13.570Z,356
2019-01-27T08:18:58.923Z,392
2019-01-27T08:19:58.938Z,512
2019-01-27T08:21:13.613Z,732
2019-01-27T08:21:58.963Z,848
2019-01-27T08:22:58.738Z,1008
2019-01-27T08:23:58.993Z,1204
2019-01-27T08:24:59.006Z,1512
2019-01-27T08:25:59.069Z,1736
2019-01-27T08:26:59.035Z,1672
2019-01-27T08:27:59.049Z,1568
2019-01-27T08:28:59.062Z,1592
2019-01-27T08:30:13.740Z,1824
2019-01-27T08:30:59.092Z,1968
2019-01-27T08:31:59.106Z,1928
2019-01-27T08:32:59.131Z,1780
2019-01-27T08:33:59.139Z,1640
2019-01-27T08:34:59.149Z,1432
2019-01-27T08:35:59.161Z,1280
2019-01-27T08:37:14.731Z,1268
2019-01-27T08:37:59.200Z,1344
2019-01-27T08:38:59.211Z,1436
2019-01-27T08:39:59.250Z,1492
2019-01-27T08:40:59.234Z,1580
2019-01-27T08:41:59.246Z,1700
2019-01-27T08:42:59.259Z,1768
2019-01-27T08:43:59.279Z,1944
2019-01-27T08:44:59.293Z,2204
2019-01-27T08:45:59.307Z,2468
2019-01-27T08:46:59.324Z,2604
2019-01-27T08:48:14.044Z,3172
2019-01-27T08:48:59.349Z,3512
2019-01-27T08:49:59.363Z,3616
2019-01-27T08:51:59.388Z,3536
2019-01-27T08:53:14.073Z,3548
2019-01-27T08:53:59.418Z,3732
2019-01-27T08:54:59.440Z,3712
2019-01-27T08:56:59.461Z,2928
2019-01-27T08:57:59.483Z,2544
2019-01-27T08:58:59.496Z,2204
2019-01-27T08:59:59.509Z,1932
2019-01-27T09:00:59.516Z,1704
2019-01-27T09:01:59.551Z,1516
2019-01-27T09:02:59.554Z,1248
2019-01-27T09:04:14.227Z,1052
2019-01-27T09:04:59.577Z,980
2019-01-27T09:05:59.601Z,828
2019-01-27T09:06:59.606Z,732
2019-01-27T09:08:14.281Z,676
2019-01-27T09:09:14.311Z,672
2019-01-27T09:09:59.398Z,684
2019-01-27T09:10:59.716Z,804
2019-01-27T09:11:59.686Z,1008
2019-01-27T09:12:59.692Z,1232
2019-01-27T09:13:59.720Z,1364
2019-01-27T09:14:59.726Z,1396
2019-01-27T09:15:59.756Z,1432
2019-01-27T09:16:59.801Z,1540
2019-01-27T09:18:14.428Z,1864
2019-01-27T09:18:59.779Z,2088
2019-01-27T09:20:14.458Z,2632
2019-01-27T09:20:59.806Z,2868
2019-01-27T09:22:59.834Z,3604
2019-01-27T09:24:14.517Z,3780
2019-01-27T09:24:59.879Z,3796
2019-01-27T09:26:59.893Z,3772
2019-01-27T09:27:59.910Z,4032
2019-01-27T09:28:59.928Z,4836
2019-01-27T09:29:59.942Z,6304
2019-01-27T09:30:59.960Z,7052
2019-01-27T09:31:59.969Z,7052
2019-01-27T09:33:00.182Z,6712
2019-01-27T09:34:00.053Z,6312
2019-01-27T09:35:00.016Z,6468
2019-01-27T09:37:00.041Z,9296
2019-01-27T09:38:00.063Z,9188
2019-01-27T09:39:00.077Z,9704
2019-01-27T09:41:00.109Z,9108
2019-01-27T09:42:00.124Z,8400
2019-01-27T09:43:00.134Z,7632
2019-01-27T09:44:00.201Z,6756
2019-01-27T09:45:00.237Z,6176
2019-01-27T09:46:16.282Z,5872
2019-01-27T09:47:00.199Z,5904
2019-01-27T09:48:00.226Z,5960
2019-01-27T09:49:14.892Z,5904
2019-01-27T09:50:00.240Z,5668
2019-01-27T09:51:00.308Z,5284
2019-01-27T09:52:00.378Z,4972
2019-01-27T09:53:00.300Z,4872
2019-01-27T09:54:00.307Z,4748
2019-01-27T09:56:15.001Z,4884
2019-01-27T09:57:00.362Z,4788
2019-01-27T09:58:00.369Z,4540
2019-01-27T09:59:00.141Z,4540
2019-01-27T10:01:00.417Z,5232
2019-01-27T10:02:00.436Z,4676
2019-01-27T10:03:00.446Z,4360
2019-01-27T10:04:15.131Z,3976
2019-01-27T10:05:15.141Z,3948
2019-01-27T10:06:00.492Z,3984
2019-01-27T10:07:15.171Z,3696
2019-01-27T10:08:00.529Z,3556
2019-01-27T10:09:15.210Z,3412
2019-01-27T10:10:00.666Z,3396
2019-01-27T10:11:00.574Z,3336
2019-01-27T10:12:15.250Z,3808
2019-01-27T10:13:00.605Z,3700
2019-01-27T10:14:00.620Z,3692
2019-01-27T10:15:00.640Z,3516
2019-01-27T10:16:00.650Z,3304
2019-01-27T10:17:00.663Z,3452
2019-01-27T10:18:00.681Z,3712
2019-01-27T10:19:00.708Z,3704
2019-01-27T10:20:00.762Z,3572
2019-01-27T10:21:00.727Z,3140
2019-01-27T10:22:00.797Z,2864
2019-01-27T10:23:00.763Z,2936
2019-01-27T10:24:00.878Z,2812
2019-01-27T10:25:00.791Z,2888
2019-01-27T10:26:00.809Z,2504
2019-01-27T10:27:00.821Z,2592
2019-01-27T10:28:15.499Z,3352
2019-01-27T10:29:00.851Z,3692
2019-01-27T10:30:00.871Z,3912
2019-01-27T10:31:00.884Z,4104
2019-01-27T10:32:00.899Z,4416
2019-01-27T10:33:15.616Z,5372
2019-01-27T10:34:00.933Z,5632
2019-01-27T10:35:01.914Z,5256
2019-01-27T10:36:00.962Z,5108
2019-01-27T10:37:00.984Z,4724
2019-01-27T10:38:01.001Z,4108
2019-01-27T10:39:15.671Z,3296
2019-01-27T10:40:08.700Z,2932
2019-01-27T10:41:01.210Z,2788
2019-01-27T10:42:01.057Z,2788
2019-01-27T10:43:01.072Z,2980
2019-01-27T10:44:15.802Z,3424
2019-01-27T10:45:01.110Z,3540
2019-01-27T10:48:01.151Z,3436
2019-01-27T10:49:01.168Z,2932
2019-01-27T10:50:01.179Z,2164
2019-01-27T10:51:01.196Z,1800
2019-01-27T10:52:01.213Z,1676
2019-01-27T10:53:01.230Z,1640
2019-01-27T10:54:01.294Z,1744
2019-01-27T10:55:01.260Z,1820
2019-01-27T10:56:15.942Z,2072
2019-01-27T10:57:01.293Z,2292
2019-01-27T10:58:01.313Z,2736
2019-01-27T10:59:16.088Z,2768
2019-01-27T11:00:01.345Z,2764
2019-01-27T11:01:01.358Z,2752
2019-01-27T11:03:01.390Z,2748
2019-01-27T11:04:01.445Z,2660
2019-01-27T11:05:01.420Z,2352
2019-01-27T11:06:01.433Z,2144
2019-01-27T11:07:01.502Z,2036
2019-01-27T11:08:01.640Z,1888
2019-01-27T11:09:01.484Z,1784
2019-01-27T11:10:15.919Z,1712
2019-01-27T11:11:02.885Z,1648
2019-01-27T11:12:16.196Z,1712
2019-01-27T11:13:01.556Z,1736
2019-01-27T11:14:01.563Z,1804
2019-01-27T11:16:16.410Z,2004
2019-01-27T11:17:01.613Z,1996
2019-01-27T11:18:01.624Z,1924
2019-01-27T11:19:01.642Z,1812
2019-01-27T11:20:01.661Z,1844
2019-01-27T11:21:01.686Z,2048
2019-01-27T11:22:01.703Z,2116
2019-01-27T11:23:01.705Z,2288
2019-01-27T11:24:01.723Z,2356
2019-01-27T11:25:01.736Z,2748
2019-01-27T11:26:07.893Z,2836
2019-01-27T11:27:02.280Z,2680
2019-01-27T11:28:16.447Z,2688
2019-01-27T11:29:01.912Z,3072
2019-01-27T11:30:16.482Z,3792
2019-01-27T11:31:16.498Z,4024
2019-01-27T11:32:01.950Z,3520
2019-01-27T11:33:02.588Z,3024
2019-01-27T11:35:01.891Z,2720
2019-01-27T11:36:01.909Z,2652
2019-01-27T11:37:01.923Z,2792
2019-01-27T11:38:01.939Z,2892
2019-01-27T11:39:01.955Z,2768
2019-01-27T11:41:01.988Z,3264
2019-01-27T11:42:16.665Z,3484
2019-01-27T11:43:02.074Z,3240
2019-01-27T11:45:16.761Z,3312
2019-01-27T11:46:02.064Z,3548
2019-01-27T11:47:16.742Z,3736
2019-01-27T11:48:02.095Z,4056
2019-01-27T11:49:02.113Z,4444
2019-01-27T11:50:03.175Z,4488
2019-01-27T11:51:02.150Z,4508
2019-01-27T11:52:02.160Z,4736
2019-01-27T11:53:01.926Z,4628
2019-01-27T11:54:02.194Z,4440
2019-01-27T11:55:02.210Z,4264
2019-01-27T11:56:02.232Z,4024
2019-01-27T11:57:02.238Z,3604
2019-01-27T11:58:02.276Z,2984
2019-01-27T12:00:02.283Z,2372
2019-01-27T12:01:16.978Z,2284
2019-01-27T12:02:02.358Z,2204
2019-01-27T12:03:16.999Z,2224
2019-01-27T12:04:02.401Z,2292
2019-01-27T12:05:02.419Z,2464
2019-01-27T12:06:16.797Z,2444
2019-01-27T12:07:02.402Z,2180
2019-01-27T12:08:02.428Z,1764
2019-01-27T12:09:02.428Z,1596
2019-01-27T12:10:02.550Z,1472
2019-01-27T12:11:02.474Z,1580
2019-01-27T12:12:02.481Z,1528
2019-01-27T12:13:17.159Z,1528
2019-01-27T12:14:17.179Z,1696
2019-01-27T12:15:02.619Z,1904
2019-01-27T12:16:02.544Z,2148
2019-01-27T12:18:02.574Z,2384
2019-01-27T12:19:17.265Z,2388
2019-01-27T12:20:02.613Z,2408
2019-01-27T12:21:02.670Z,2444
2019-01-27T12:22:02.643Z,2268
2019-01-27T12:23:02.655Z,2140
2019-01-27T12:24:02.668Z,2188
2019-01-27T12:25:02.684Z,2220
2019-01-27T12:26:02.699Z,2308
2019-01-27T12:27:02.768Z,2444
2019-01-27T12:28:02.735Z,2588
2019-01-27T12:29:17.414Z,2592
2019-01-27T12:30:02.772Z,2608
2019-01-27T12:31:02.787Z,2484
2019-01-27T12:32:02.809Z,2136
2019-01-27T12:34:17.499Z,1656
2019-01-27T12:35:02.851Z,1680
2019-01-27T12:36:02.861Z,1572
2019-01-27T12:37:02.880Z,1480
2019-01-27T12:38:02.891Z,1696
2019-01-27T12:39:02.908Z,1752
2019-01-27T12:40:02.964Z,1716
2019-01-27T12:41:17.607Z,2016
2019-01-27T12:42:02.955Z,2176
2019-01-27T12:43:02.974Z,2368
2019-01-27T12:44:02.992Z,2636
2019-01-27T12:45:03.004Z,2808
2019-01-27T12:46:03.045Z,2824
2019-01-27T12:47:03.034Z,2940
2019-01-27T12:48:17.713Z,2960
2019-01-27T12:49:03.072Z,2900
2019-01-27T12:50:03.088Z,2936
2019-01-27T12:51:03.104Z,3288
2019-01-27T12:52:02.867Z,3892
2019-01-27T12:53:03.130Z,4500
2019-01-27T12:54:03.147Z,4744
2019-01-27T12:55:03.166Z,4532
2019-01-27T12:56:03.178Z,3932
2019-01-27T12:57:03.243Z,3412
2019-01-27T12:58:17.875Z,2976
2019-01-27T12:59:03.227Z,2744
2019-01-27T13:00:03.246Z,2460
2019-01-27T13:01:03.258Z,2320
2019-01-27T13:02:17.988Z,2440
2019-01-27T13:03:03.288Z,2440
2019-01-27T13:04:03.307Z,2472
2019-01-27T13:05:03.323Z,2288
2019-01-27T13:06:17.757Z,2148
2019-01-27T13:08:03.521Z,2652
2019-01-27T13:09:03.387Z,2960
2019-01-27T13:10:03.400Z,2908
2019-01-27T13:11:08.034Z,2688
2019-01-27T13:12:03.543Z,2468
2019-01-27T13:13:18.116Z,1972
2019-01-27T13:14:03.478Z,1632
2019-01-27T13:15:03.484Z,1644
2019-01-27T13:16:03.501Z,1944
2019-01-27T13:17:07.387Z,2260
2019-01-27T13:18:03.569Z,2356
2019-01-27T13:19:18.260Z,2264
2019-01-27T13:20:18.232Z,2204
2019-01-27T13:21:03.623Z,2040
2019-01-27T13:22:18.264Z,2268
2019-01-27T13:23:03.614Z,2432
2019-01-27T13:24:03.629Z,2572
2019-01-27T13:25:03.642Z,2516
2019-01-27T13:26:03.932Z,2392
2019-01-27T13:27:03.683Z,2236
2019-01-27T13:28:03.691Z,1976
2019-01-27T13:29:03.707Z,1808
2019-01-27T13:30:03.723Z,1896
2019-01-27T13:31:03.871Z,2076
2019-01-27T13:32:03.758Z,2308
2019-01-27T13:34:03.792Z,2700
2019-01-27T13:35:03.815Z,3076
2019-01-27T13:36:03.822Z,3612
2019-01-27T13:37:03.889Z,4100
2019-01-27T13:38:18.513Z,4156
2019-01-27T13:40:03.884Z,3576
2019-01-27T13:41:18.571Z,3544
2019-01-27T13:42:04.027Z,3484
2019-01-27T13:43:18.605Z,3300
2019-01-27T13:44:03.952Z,3184
2019-01-27T13:45:03.978Z,2872
2019-01-27T13:46:03.988Z,2832
2019-01-27T13:47:18.711Z,2860
2019-01-27T13:49:18.700Z,2596
2019-01-27T13:50:04.052Z,2496
2019-01-27T13:51:18.745Z,2496
2019-01-27T13:52:04.084Z,2648
2019-01-27T13:54:18.781Z,2448
2019-01-27T13:55:04.135Z,2328
2019-01-27T13:56:04.159Z,2312
2019-01-27T13:57:04.167Z,2320
2019-01-27T13:58:04.179Z,2224
2019-01-27T13:59:04.195Z,2180
2019-01-27T14:00:04.252Z,2196
2019-01-27T14:01:04.340Z,2172
2019-01-27T14:02:04.349Z,2204
2019-01-27T14:03:04.264Z,2124
2019-01-27T14:05:05.260Z,2296
2019-01-27T14:06:04.308Z,2404
2019-01-27T14:07:18.984Z,2372
2019-01-27T14:08:04.343Z,2252
2019-01-27T14:09:19.022Z,2176
2019-01-27T14:10:04.380Z,2112
2019-01-27T14:11:04.401Z,1884
2019-01-27T14:12:04.412Z,1720
2019-01-27T14:13:04.472Z,1636
2019-01-27T14:14:04.438Z,1560
2019-01-27T14:15:04.450Z,1512
2019-01-27T14:16:19.136Z,1500
2019-01-27T14:17:04.491Z,1504
2019-01-27T14:18:04.501Z,1520
2019-01-27T14:19:04.606Z,1520
2019-01-27T14:20:19.196Z,1520
2019-01-27T14:21:04.548Z,1528
2019-01-27T14:22:04.568Z,1532
2019-01-27T14:23:04.592Z,1560
2019-01-27T14:25:04.620Z,1636
2019-01-27T14:27:04.649Z,1696
2019-01-27T14:28:04.665Z,1724
2019-01-27T14:29:04.685Z,1728
2019-01-27T14:30:04.696Z,1732
2019-01-27T14:31:04.721Z,1728
2019-01-27T14:32:04.736Z,1740
2019-01-27T14:33:19.409Z,1760
2019-01-27T14:34:04.810Z,1764
2019-01-27T14:35:05.195Z,1764
2019-01-27T14:36:19.454Z,1780
2019-01-27T14:37:04.812Z,1796
2019-01-27T14:38:04.826Z,1820
2019-01-27T14:39:19.504Z,1824
2019-01-27T14:40:04.981Z,1800
2019-01-27T14:41:19.535Z,1756
2019-01-27T14:42:04.890Z,1728
2019-01-27T14:43:20.424Z,1704
2019-01-27T14:44:04.924Z,1692
2019-01-27T14:46:04.966Z,1620
2019-01-27T14:47:04.969Z,1524
2019-01-27T14:48:04.999Z,1420
2019-01-27T14:49:05.004Z,1368
2019-01-27T14:50:05.028Z,1352
2019-01-27T14:51:05.157Z,1368
2019-01-27T14:52:05.099Z,1356
2019-01-27T14:53:05.069Z,1344
2019-01-27T14:56:05.166Z,1324
2019-01-27T14:57:19.793Z,1284
2019-01-27T14:58:05.160Z,1256
2019-01-27T14:59:05.169Z,1212
2019-01-27T15:00:05.185Z,1136
2019-01-27T15:01:19.867Z,1068
2019-01-27T15:02:05.208Z,1032
2019-01-27T15:03:05.522Z,980